createdAt,value
2018-03-26T00:00:14.383Z,63.90
2018-03-26T00:02:41.843Z,64.70
2018-03-26T00:05:09.824Z,64.20
2018-03-26T00:07:37.320Z,64.40
2018-03-26T00:10:05.210Z,64.60
2018-03-26T00:12:32.902Z,64.60
2018-03-26T00:15:00.556Z,64.70
2018-03-26T00:17:28.010Z,64.80
2018-03-26T00:19:55.801Z,64.90
2018-03-26T00:22:23.297Z,65.10
2018-03-26T00:24:50.841Z,64.80
2018-03-26T00:27:18.470Z,65.50
2018-03-26T00:29:45.941Z,65.80
2018-03-26T00:32:14.680Z,65.90
2018-03-26T00:34:43.407Z,65.90
2018-03-26T00:37:12.765Z,66.00
2018-03-26T00:39:40.337Z,66.00
2018-03-26T00:42:07.788Z,66.10
2018-03-26T00:44:35.761Z,66.10
2018-03-26T00:47:03.238Z,66.20
2018-03-26T00:49:31.264Z,66.30
2018-03-26T00:51:59.501Z,66.30
2018-03-26T00:54:28.074Z,66.60
2018-03-26T00:56:55.722Z,67.40
2018-03-26T00:59:23.233Z,66.30
2018-03-26T01:01:50.723Z,67.20
2018-03-26T01:04:18.221Z,67.20
2018-03-26T01:06:46.979Z,67.20
2018-03-26T01:09:15.200Z,67.00
2018-03-26T01:11:43.902Z,67.00
2018-03-26T01:14:11.358Z,67.00
2018-03-26T01:16:39.768Z,66.70
2018-03-26T01:19:07.316Z,66.60
2018-03-26T01:21:34.802Z,66.70
2018-03-26T01:24:03.034Z,66.70
2018-03-26T01:26:30.821Z,66.70
2018-03-26T01:28:58.286Z,66.80
2018-03-26T01:31:25.729Z,66.70
2018-03-26T01:33:54.580Z,66.80
2018-03-26T01:36:22.397Z,66.70
2018-03-26T01:38:50.325Z,66.60
2018-03-26T01:41:18.567Z,66.50
2018-03-26T01:43:46.482Z,66.50
2018-03-26T01:46:14.672Z,66.30
2018-03-26T01:48:42.741Z,66.10
2018-03-26T01:51:10.521Z,66.00
2018-03-26T01:53:37.979Z,66.10
2018-03-26T01:56:05.424Z,66.30
2018-03-26T01:58:33.186Z,66.50
2018-03-26T02:01:00.634Z,66.60
2018-03-26T02:03:28.151Z,66.80
2018-03-26T02:05:55.977Z,66.90
2018-03-26T02:08:23.486Z,66.90
2018-03-26T02:10:51.182Z,66.90
2018-03-26T02:13:18.628Z,66.90
2018-03-26T02:15:46.722Z,66.90
2018-03-26T02:18:14.177Z,66.80
2018-03-26T02:20:41.952Z,66.90
2018-03-26T02:23:09.395Z,66.90
2018-03-26T02:25:37.526Z,66.80
2018-03-26T02:28:06.245Z,67.20
2018-03-26T02:30:34.534Z,67.20
2018-03-26T02:33:02.093Z,67.20
2018-03-26T02:35:29.941Z,67.20
2018-03-26T02:37:57.712Z,67.40
2018-03-26T02:40:25.156Z,67.40
2018-03-26T02:42:52.943Z,67.50
2018-03-26T02:45:20.823Z,67.60
2018-03-26T02:47:49.045Z,67.80
2018-03-26T02:50:16.850Z,67.70
2018-03-26T02:52:44.306Z,67.80
2018-03-26T02:55:11.776Z,67.90
2018-03-26T02:57:40.041Z,68.10
2018-03-26T03:00:07.743Z,68.00
2018-03-26T03:02:35.282Z,68.20
2018-03-26T03:05:04.092Z,68.50
2018-03-26T03:07:31.602Z,68.30
2018-03-26T03:09:59.074Z,68.50
2018-03-26T03:12:27.642Z,68.60
2018-03-26T03:14:55.144Z,68.60
2018-03-26T03:17:22.550Z,68.70
2018-03-26T03:19:50.761Z,69.00
2018-03-26T03:22:18.972Z,69.20
2018-03-26T03:24:46.519Z,69.20
2018-03-26T03:27:14.044Z,69.40
2018-03-26T03:29:42.256Z,69.60
2018-03-26T03:32:09.774Z,69.60
2018-03-26T03:34:37.811Z,69.70
2018-03-26T03:37:05.783Z,69.90
2018-03-26T03:39:33.844Z,70.00
2018-03-26T03:42:01.316Z,70.00
2018-03-26T03:44:29.208Z,70.00
2018-03-26T03:46:57.443Z,70.00
2018-03-26T03:49:25.383Z,70.00
2018-03-26T03:51:52.867Z,70.00
2018-03-26T03:54:20.323Z,70.00
2018-03-26T03:56:47.820Z,70.00
2018-03-26T03:59:16.119Z,70.00
2018-03-26T04:01:43.568Z,70.10
2018-03-26T04:04:11.019Z,70.10
2018-03-26T04:06:38.841Z,70.30
2018-03-26T04:09:06.288Z,70.40
2018-03-26T04:11:34.235Z,70.40
2018-03-26T04:14:02.140Z,70.50
2018-03-26T04:16:30.759Z,70.50
2018-03-26T04:18:58.976Z,71.20
2018-03-26T04:21:26.474Z,70.50
2018-03-26T04:23:54.933Z,70.90
2018-03-26T04:26:23.205Z,70.90
2018-03-26T04:28:50.936Z,70.80
2018-03-26T04:31:18.519Z,70.80
2018-03-26T04:33:46.342Z,70.80
2018-03-26T04:36:14.328Z,70.90
2018-03-26T04:38:42.151Z,71.00
2018-03-26T04:41:10.394Z,71.00
2018-03-26T04:43:38.107Z,71.00
2018-03-26T04:46:06.329Z,71.10
2018-03-26T04:48:34.004Z,71.00
2018-03-26T04:51:01.467Z,71.10
2018-03-26T04:53:28.932Z,71.10
2018-03-26T04:55:56.382Z,71.10
2018-03-26T04:58:23.916Z,71.40
2018-03-26T05:00:51.448Z,71.00
2018-03-26T05:03:18.961Z,71.00
2018-03-26T05:05:47.120Z,70.90
2018-03-26T05:08:14.560Z,70.90
2018-03-26T05:10:42.638Z,71.00
2018-03-26T05:13:10.084Z,70.80
2018-03-26T05:15:37.541Z,70.70
2018-03-26T05:18:05.081Z,70.40
2018-03-26T05:20:32.669Z,70.10
2018-03-26T05:23:00.129Z,70.10
2018-03-26T05:25:27.593Z,70.10
2018-03-26T05:27:57.704Z,70.00
2018-03-26T05:30:25.311Z,69.90
2018-03-26T05:32:52.770Z,69.80
2018-03-26T05:35:22.020Z,69.80
2018-03-26T05:37:49.789Z,69.80
2018-03-26T05:40:17.549Z,69.60
2018-03-26T05:42:45.003Z,69.30
2018-03-26T05:45:13.683Z,69.10
2018-03-26T05:47:41.124Z,69.20
2018-03-26T05:50:09.002Z,68.50
2018-03-26T05:52:36.445Z,68.40
2018-03-26T05:55:03.930Z,68.40
2018-03-26T05:57:31.377Z,68.10
2018-03-26T05:59:59.133Z,68.00
2018-03-26T06:02:26.582Z,68.00
2018-03-26T06:04:55.182Z,68.00
2018-03-26T06:07:22.630Z,67.70
2018-03-26T06:09:50.092Z,67.50
2018-03-26T06:12:17.948Z,67.30
2018-03-26T06:14:45.455Z,67.00
2018-03-26T06:17:13.727Z,67.30
2018-03-26T06:19:41.973Z,67.50
2018-03-26T06:22:10.120Z,67.30
2018-03-26T06:24:37.930Z,67.60
2018-03-26T06:27:07.329Z,67.50
2018-03-26T06:29:35.049Z,67.40
2018-03-26T06:32:02.543Z,67.20
2018-03-26T06:34:30.015Z,67.40
2018-03-26T06:37:07.984Z,67.40
2018-03-26T06:39:35.850Z,67.30
2018-03-26T06:42:03.312Z,67.20
2018-03-26T06:44:31.030Z,67.20
2018-03-26T06:46:58.733Z,67.40
2018-03-26T06:49:26.200Z,67.50
2018-03-26T06:51:53.852Z,67.40
2018-03-26T06:54:21.304Z,67.40
2018-03-26T06:56:48.839Z,67.70
2018-03-26T06:59:17.022Z,68.40
2018-03-26T07:01:44.604Z,67.60
2018-03-26T07:04:12.127Z,67.60
2018-03-26T07:06:40.026Z,67.50
2018-03-26T07:09:07.498Z,67.50
2018-03-26T07:11:35.409Z,67.40
2018-03-26T07:14:02.852Z,67.50
2018-03-26T07:16:30.329Z,67.10
2018-03-26T07:18:58.755Z,67.20
2018-03-26T07:21:26.296Z,67.10
2018-03-26T07:23:53.768Z,67.20
2018-03-26T07:26:21.692Z,67.30
2018-03-26T07:28:49.155Z,67.30
2018-03-26T07:31:16.630Z,66.50
2018-03-26T07:33:44.337Z,66.20
2018-03-26T07:36:13.327Z,66.30
2018-03-26T07:38:41.573Z,66.00
2018-03-26T07:41:09.619Z,66.00
2018-03-26T07:43:37.603Z,65.80
2018-03-26T07:46:05.581Z,65.80
2018-03-26T07:48:33.033Z,66.10
2018-03-26T07:51:01.243Z,66.30
2018-03-26T07:53:29.480Z,66.50
2018-03-26T07:55:56.962Z,66.50
2018-03-26T07:58:24.703Z,66.30
2018-03-26T08:00:52.653Z,66.10
2018-03-26T08:03:20.092Z,66.10
2018-03-26T08:05:48.424Z,66.30
2018-03-26T08:08:16.650Z,65.50
2018-03-26T08:10:44.751Z,65.50
2018-03-26T08:13:12.213Z,65.30
2018-03-26T08:15:39.695Z,65.20
2018-03-26T08:18:07.909Z,64.10
2018-03-26T08:20:35.493Z,64.00
2018-03-26T08:23:03.157Z,64.20
2018-03-26T08:25:30.694Z,64.30
2018-03-26T08:27:58.178Z,64.80
2018-03-26T08:30:25.690Z,64.00
2018-03-26T08:32:53.149Z,64.70
2018-03-26T08:35:21.013Z,64.60
2018-03-26T08:37:48.489Z,64.00
2018-03-26T08:40:16.596Z,64.00
2018-03-26T08:42:44.041Z,62.70
2018-03-26T08:45:12.075Z,62.80
2018-03-26T08:47:39.534Z,63.60
2018-03-26T08:50:07.697Z,63.40
2018-03-26T08:52:35.345Z,63.20
2018-03-26T08:55:02.829Z,63.80
2018-03-26T08:57:30.256Z,63.60
2018-03-26T08:59:57.954Z,63.40
2018-03-26T09:02:25.469Z,63.40
2018-03-26T09:04:53.424Z,63.60
2018-03-26T09:07:21.648Z,64.60
2018-03-26T09:09:49.103Z,64.60
2018-03-26T09:12:16.889Z,64.50
2018-03-26T09:14:44.629Z,63.70
2018-03-26T09:17:12.097Z,63.60
2018-03-26T09:19:39.558Z,63.50
2018-03-26T09:22:07.054Z,63.10
2018-03-26T09:24:35.300Z,63.10
2018-03-26T09:27:02.825Z,63.10
2018-03-26T09:29:30.287Z,61.70
2018-03-26T09:31:58.313Z,61.00
2018-03-26T09:34:26.634Z,62.00
2018-03-26T09:36:54.465Z,61.90
2018-03-26T09:39:22.768Z,62.00
2018-03-26T09:41:50.470Z,62.00
2018-03-26T09:44:18.344Z,61.20
2018-03-26T09:46:45.814Z,60.70
2018-03-26T09:49:14.044Z,60.00
2018-03-26T09:51:41.690Z,60.00
2018-03-26T09:54:09.144Z,60.00
2018-03-26T09:56:36.625Z,60.00
2018-03-26T09:59:04.101Z,59.70
2018-03-26T10:01:32.499Z,59.90
2018-03-26T10:04:00.749Z,59.70
2018-03-26T10:06:28.535Z,59.70
2018-03-26T10:08:56.840Z,60.30
2018-03-26T10:11:24.714Z,60.20
2018-03-26T10:13:52.303Z,59.90
2018-03-26T10:16:19.771Z,59.40
2018-03-26T10:18:47.253Z,58.90
2018-03-26T10:21:15.468Z,58.30
2018-03-26T10:23:43.093Z,58.20
2018-03-26T10:26:11.317Z,57.70
2018-03-26T10:28:39.887Z,57.60
2018-03-26T10:31:07.377Z,58.30
2018-03-26T10:33:34.841Z,57.50
2018-03-26T10:36:02.798Z,57.30
2018-03-26T10:38:30.329Z,56.60
2018-03-26T10:40:59.148Z,56.30
2018-03-26T10:43:27.222Z,56.30
2018-03-26T10:45:54.741Z,56.00
2018-03-26T10:48:22.196Z,55.60
2018-03-26T10:50:49.793Z,55.90
2018-03-26T10:53:17.256Z,55.50
2018-03-26T10:55:44.945Z,55.80
2018-03-26T10:58:13.243Z,53.40
2018-03-26T11:00:40.799Z,53.40
2018-03-26T11:03:08.303Z,53.30
2018-03-26T11:05:36.245Z,53.30
2018-03-26T11:08:04.233Z,53.10
2018-03-26T11:10:32.232Z,53.10
2018-03-26T11:12:59.677Z,53.60
2018-03-26T11:15:27.171Z,53.60
2018-03-26T11:17:54.628Z,53.40
2018-03-26T11:20:22.316Z,50.90
2018-03-26T11:22:49.856Z,49.50
2018-03-26T11:25:17.369Z,50.40
2018-03-26T11:27:45.284Z,51.10
2018-03-26T11:30:12.778Z,51.60
2018-03-26T11:32:40.707Z,51.20
2018-03-26T11:35:08.566Z,51.50
2018-03-26T11:37:36.002Z,50.70
2018-03-26T11:40:04.291Z,51.10
2018-03-26T11:42:32.825Z,49.90
2018-03-26T11:45:00.618Z,49.90
2018-03-26T11:47:28.916Z,49.90
2018-03-26T11:49:56.359Z,49.90
2018-03-26T11:52:25.149Z,48.40
2018-03-26T11:54:53.367Z,48.40
2018-03-26T11:57:20.829Z,48.30
2018-03-26T11:59:48.281Z,48.10
2018-03-26T12:02:15.865Z,46.50
2018-03-26T12:04:43.839Z,45.70
2018-03-26T12:07:12.212Z,47.90
2018-03-26T12:09:39.653Z,47.90
2018-03-26T12:12:07.441Z,46.60
2018-03-26T12:14:35.677Z,46.60
2018-03-26T12:17:03.128Z,46.60
2018-03-26T12:19:30.578Z,47.00
2018-03-26T12:21:58.816Z,46.80
2018-03-26T12:24:38.374Z,45.50
2018-03-26T12:27:06.908Z,46.20
2018-03-26T12:29:46.185Z,46.10
2018-03-26T12:32:16.000Z,45.60
2018-03-26T12:34:56.618Z,45.40
2018-03-26T12:37:24.257Z,45.00
2018-03-26T12:39:51.743Z,45.20
2018-03-26T12:42:19.609Z,46.00
2018-03-26T12:44:59.456Z,46.70
2018-03-26T12:47:27.416Z,46.50
2018-03-26T12:49:54.980Z,45.90
2018-03-26T12:52:47.213Z,46.00
2018-03-26T12:55:14.673Z,45.20
2018-03-26T12:58:06.887Z,44.00
2018-03-26T13:00:35.300Z,43.10
2018-03-26T13:03:02.768Z,43.50
2018-03-26T13:05:30.720Z,43.40
2018-03-26T13:07:58.182Z,44.40
2018-03-26T13:10:26.172Z,44.60
2018-03-26T13:12:54.410Z,43.90
2018-03-26T13:15:21.850Z,43.80
2018-03-26T13:17:49.562Z,42.60
2018-03-26T13:20:17.872Z,43.20
2018-03-26T13:22:45.484Z,43.20
2018-03-26T13:25:14.426Z,42.80
2018-03-26T13:27:42.030Z,42.80
2018-03-26T13:30:10.249Z,42.10
2018-03-26T13:32:37.690Z,42.10
2018-03-26T13:35:06.221Z,41.90
2018-03-26T13:37:33.673Z,41.90
2018-03-26T13:40:01.466Z,42.10
2018-03-26T13:42:30.025Z,42.70
2018-03-26T13:44:57.810Z,42.70
2018-03-26T13:47:25.257Z,42.40
2018-03-26T13:49:52.782Z,41.80
2018-03-26T13:52:20.220Z,41.20
2018-03-26T13:54:47.680Z,40.80
2018-03-26T13:57:15.113Z,40.20
2018-03-26T13:59:43.554Z,39.70
2018-03-26T14:02:10.997Z,39.70
2018-03-26T14:04:38.981Z,40.20
2018-03-26T14:07:06.436Z,40.40
2018-03-26T14:09:45.634Z,40.90
2018-03-26T14:12:25.424Z,41.00
2018-03-26T14:15:04.853Z,43.70
2018-03-26T14:17:44.240Z,45.10
2018-03-26T14:20:12.468Z,44.10
2018-03-26T14:22:39.921Z,44.00
2018-03-26T14:25:07.408Z,43.00
2018-03-26T14:27:35.807Z,42.40
2018-03-26T14:30:03.735Z,42.30
2018-03-26T14:32:31.281Z,42.70
2018-03-26T14:35:11.368Z,40.60
2018-03-26T14:37:38.859Z,40.30
2018-03-26T14:40:06.456Z,39.60
2018-03-26T14:42:34.515Z,39.70
2018-03-26T14:45:02.602Z,39.70
2018-03-26T14:47:30.085Z,37.80
2018-03-26T14:49:58.322Z,39.90
2018-03-26T14:52:25.823Z,39.70
2018-03-26T14:54:54.044Z,38.60
2018-03-26T14:57:21.505Z,38.50
2018-03-26T14:59:48.945Z,38.40
2018-03-26T15:02:16.632Z,40.20
2018-03-26T15:04:44.774Z,40.70
2018-03-26T15:07:12.265Z,40.70
2018-03-26T15:09:39.718Z,40.50
2018-03-26T15:12:07.766Z,39.80
2018-03-26T15:14:35.217Z,40.50
2018-03-26T15:17:02.656Z,39.40
2018-03-26T15:19:30.128Z,39.90
2018-03-26T15:21:57.590Z,40.50
2018-03-26T15:24:25.081Z,41.50
2018-03-26T15:26:52.989Z,40.40
2018-03-26T15:29:20.496Z,39.90
2018-03-26T15:31:47.959Z,39.80
2018-03-26T15:34:15.471Z,40.00
2018-03-26T15:36:43.293Z,40.50
2018-03-26T15:39:10.943Z,40.20
2018-03-26T15:41:38.390Z,40.90
2018-03-26T15:44:06.266Z,41.00
2018-03-26T15:46:33.915Z,40.60
2018-03-26T15:49:01.367Z,40.70
2018-03-26T15:51:28.827Z,40.30
2018-03-26T15:53:56.549Z,39.60
2018-03-26T15:56:24.012Z,40.00
2018-03-26T15:58:51.479Z,39.60
2018-03-26T16:01:19.170Z,39.80
2018-03-26T16:03:46.810Z,40.70
2018-03-26T16:06:14.517Z,40.80
2018-03-26T16:08:42.010Z,39.50
2018-03-26T16:11:09.916Z,38.80
2018-03-26T16:13:37.360Z,38.90
2018-03-26T16:16:05.782Z,39.50
2018-03-26T16:18:34.245Z,40.80
2018-03-26T16:21:01.785Z,40.20
2018-03-26T16:23:29.234Z,40.40
2018-03-26T16:25:57.127Z,40.80
2018-03-26T16:28:24.577Z,40.70
2018-03-26T16:30:52.074Z,41.20
2018-03-26T16:33:20.279Z,41.50
2018-03-26T16:35:48.075Z,41.40
2018-03-26T16:38:15.550Z,41.80
2018-03-26T16:40:43.190Z,41.50
2018-03-26T16:43:11.258Z,41.30
2018-03-26T16:45:38.734Z,41.60
2018-03-26T16:48:06.579Z,41.50
2018-03-26T16:50:34.068Z,41.80
2018-03-26T16:53:02.302Z,42.70
2018-03-26T16:55:29.767Z,42.30
2018-03-26T16:57:57.290Z,43.00
2018-03-26T17:00:24.750Z,44.10
2018-03-26T17:02:52.208Z,43.80
2018-03-26T17:05:20.417Z,44.00
2018-03-26T17:07:47.884Z,44.50
2018-03-26T17:10:16.868Z,44.90
2018-03-26T17:12:44.385Z,45.00
2018-03-26T17:15:12.430Z,45.20
2018-03-26T17:17:41.018Z,46.00
2018-03-26T17:20:09.606Z,46.30
2018-03-26T17:22:37.319Z,46.30
2018-03-26T17:25:04.892Z,46.70
2018-03-26T17:27:32.605Z,46.90
2018-03-26T17:30:00.368Z,46.80
2018-03-26T17:32:28.132Z,46.60
2018-03-26T17:34:56.539Z,47.70
2018-03-26T17:37:24.001Z,46.50
2018-03-26T17:39:51.488Z,46.10
2018-03-26T17:42:19.752Z,46.50
2018-03-26T17:44:47.704Z,46.50
2018-03-26T17:47:16.331Z,46.80
2018-03-26T17:49:43.777Z,47.10
2018-03-26T17:52:12.225Z,47.80
2018-03-26T17:54:39.678Z,47.80
2018-03-26T17:57:07.168Z,48.20
2018-03-26T17:59:35.377Z,49.10
2018-03-26T18:02:02.831Z,49.10
2018-03-26T18:04:31.586Z,49.30
2018-03-26T18:06:59.820Z,49.60
2018-03-26T18:09:27.352Z,50.10
2018-03-26T18:11:55.069Z,49.50
2018-03-26T18:14:23.310Z,49.70
2018-03-26T18:16:50.990Z,49.70
2018-03-26T18:19:18.853Z,49.50
2018-03-26T18:21:46.553Z,49.60
2018-03-26T18:24:14.894Z,50.30
2018-03-26T18:26:42.568Z,50.20
2018-03-26T18:29:10.043Z,50.30
2018-03-26T18:31:38.384Z,50.80
2018-03-26T18:34:05.958Z,50.70
2018-03-26T18:36:33.655Z,50.80
2018-03-26T18:39:01.164Z,51.00
2018-03-26T18:41:28.717Z,51.00
2018-03-26T18:43:56.715Z,51.10
2018-03-26T18:46:24.243Z,51.30
2018-03-26T18:48:52.468Z,51.40
2018-03-26T18:51:20.706Z,51.50
2018-03-26T18:53:48.176Z,51.40
2018-03-26T18:56:16.417Z,51.30
2018-03-26T18:58:43.889Z,51.40
2018-03-26T19:01:11.356Z,51.40
2018-03-26T19:03:39.323Z,51.50
2018-03-26T19:06:07.996Z,51.80
2018-03-26T19:08:36.252Z,51.60
2018-03-26T19:11:04.319Z,52.10
2018-03-26T19:13:31.797Z,51.40
2018-03-26T19:15:59.263Z,51.50
2018-03-26T19:18:26.812Z,51.40
2018-03-26T19:20:54.264Z,51.70
2018-03-26T19:23:22.347Z,51.80
2018-03-26T19:25:49.798Z,52.00
2018-03-26T19:28:17.663Z,52.20
2018-03-26T19:30:45.171Z,52.30
2018-03-26T19:33:13.658Z,52.50
2018-03-26T19:35:41.480Z,52.80
2018-03-26T19:38:08.933Z,52.60
2018-03-26T19:40:36.583Z,52.60
2018-03-26T19:43:04.109Z,52.90
2018-03-26T19:45:32.027Z,53.90
2018-03-26T19:47:59.978Z,54.80
2018-03-26T19:50:27.855Z,53.40
2018-03-26T19:52:55.325Z,52.90
2018-03-26T19:55:23.554Z,52.90
2018-03-26T19:57:51.257Z,52.80
2018-03-26T20:00:19.484Z,52.60
2018-03-26T20:02:47.400Z,52.70
2018-03-26T20:05:16.089Z,53.50
2018-03-26T20:07:43.556Z,53.30
2018-03-26T20:10:12.219Z,53.30
2018-03-26T20:12:40.078Z,53.20
2018-03-26T20:15:07.558Z,53.40
2018-03-26T20:17:36.121Z,53.60
2018-03-26T20:20:03.601Z,53.60
2018-03-26T20:22:32.089Z,53.60
2018-03-26T20:25:00.657Z,53.70
2018-03-26T20:27:28.953Z,53.90
2018-03-26T20:29:56.406Z,53.80
2018-03-26T20:32:24.681Z,54.40
2018-03-26T20:34:53.492Z,54.60
2018-03-26T20:37:21.129Z,54.50
2018-03-26T20:39:49.337Z,54.80
2018-03-26T20:42:16.937Z,54.80
2018-03-26T20:44:44.907Z,54.80
2018-03-26T20:47:12.369Z,54.70
2018-03-26T20:49:39.888Z,54.70
2018-03-26T20:52:07.357Z,54.80
2018-03-26T20:54:34.832Z,55.00
2018-03-26T20:57:02.300Z,56.00
2018-03-26T20:59:29.921Z,55.60
2018-03-26T21:01:57.369Z,55.20
2018-03-26T21:04:25.669Z,55.40
2018-03-26T21:06:53.107Z,55.80
2018-03-26T21:09:21.162Z,56.00
2018-03-26T21:11:49.166Z,56.00
2018-03-26T21:14:17.340Z,55.90
2018-03-26T21:16:44.776Z,56.20
2018-03-26T21:19:12.340Z,56.10
2018-03-26T21:21:39.799Z,56.20
2018-03-26T21:24:07.386Z,56.30
2018-03-26T21:26:34.904Z,56.20
2018-03-26T21:29:02.381Z,56.50
2018-03-26T21:31:29.839Z,56.40
2018-03-26T21:33:57.313Z,56.30
2018-03-26T21:36:25.900Z,56.10
2018-03-26T21:38:53.904Z,56.40
2018-03-26T21:41:21.357Z,56.70
2018-03-26T21:43:49.104Z,56.80
2018-03-26T21:46:17.740Z,57.00
2018-03-26T21:48:45.211Z,57.00
2018-03-26T21:51:12.730Z,56.90
2018-03-26T21:53:40.193Z,57.20
2018-03-26T21:56:07.868Z,57.30
2018-03-26T21:58:35.326Z,57.20
2018-03-26T22:01:03.031Z,57.30
2018-03-26T22:03:30.474Z,57.20
2018-03-26T22:05:58.330Z,56.60
2018-03-26T22:08:26.299Z,56.30
2018-03-26T22:10:54.282Z,56.20
2018-03-26T22:13:22.116Z,56.50
2018-03-26T22:15:49.707Z,56.60
2018-03-26T22:18:17.162Z,56.70
2018-03-26T22:20:45.413Z,56.90
2018-03-26T22:23:12.891Z,56.90
2018-03-26T22:25:40.741Z,57.00
2018-03-26T22:28:08.816Z,57.00
2018-03-26T22:30:36.262Z,57.10
2018-03-26T22:33:04.034Z,56.90
2018-03-26T22:35:31.910Z,56.40
2018-03-26T22:37:59.461Z,56.50
2018-03-26T22:40:26.913Z,56.70
2018-03-26T22:42:54.992Z,57.00
2018-03-26T22:45:23.093Z,57.20
2018-03-26T22:47:51.365Z,57.00
2018-03-26T22:50:18.798Z,57.80
2018-03-26T22:52:46.403Z,58.00
2018-03-26T22:55:14.059Z,58.00
2018-03-26T22:57:42.896Z,58.00
2018-03-26T23:00:10.350Z,58.00
2018-03-26T23:02:37.858Z,58.20
2018-03-26T23:05:06.444Z,58.50
2018-03-26T23:07:33.918Z,58.50
2018-03-26T23:10:01.919Z,58.70
2018-03-26T23:12:30.099Z,58.70
2018-03-26T23:14:57.552Z,58.50
2018-03-26T23:17:25.012Z,58.60
2018-03-26T23:19:52.509Z,58.60
2018-03-26T23:22:32.058Z,58.50
2018-03-26T23:24:59.513Z,58.60
2018-03-26T23:27:26.992Z,58.80
2018-03-26T23:29:54.460Z,58.80
2018-03-26T23:32:22.346Z,59.00
2018-03-26T23:34:51.093Z,59.30
2018-03-26T23:37:18.689Z,59.40
2018-03-26T23:39:46.151Z,59.50
2018-03-26T23:42:13.622Z,59.60
2018-03-26T23:44:42.188Z,59.50
2018-03-26T23:47:10.068Z,59.40
2018-03-26T23:49:37.509Z,59.50
2018-03-26T23:52:05.189Z,59.70
2018-03-26T23:54:32.630Z,59.90
2018-03-26T23:57:00.142Z,60.00
2018-03-26T23:59:28.151Z,60.40
